Portada
METAR-TAF:

METAR-TAF

Aeropuertos :

Qazvin, Irán

latitud: 36-15N, longitud: 050-00E, altitud: 1278 m

Observación

El informe se hizo hace 31 minutos, a las 11:00 UTC
Viento 6 kt del sur
Temperatura 15°C
Humedad 44%
Presión 1020 hPa
Visibilidad 10 km o más
Escasas nubes a una altura de 4000 ft
Nubes dispersas a una altura de 10000 ft

METAR: OIIK 231100Z 18006KT 9999 FEW040 SCT100 15/03 Q1020

Hora: 15:01 (11:31 UTC)


TAF: falta

Observaciones y pronósticos meteorológicos de más de 4000 aeropuertos (mensajes METAR y TAF).

Los puntos amarillos y rojos representan las estaciones disponibles.

Ponga el ratón en el punto deseado para ver el nombre de la estación.

Haga clic para ver las observaciones y los pronósticos meteorológicos.

Para cambiar el mapa : haga clic en los botones verdes con una cruz de color negro para hacer un zoom, en el botón verde con un guión para alejar o en las flechas verdes para mapas adyacentes.


METAR-TAF: